Time;durP1;ratioP1;P1;durP2;ratioP2;P2;SDS_P1;SDS_P2;PMS_P1;PMS_P2;Temp;Humidity;BMP_temperature;BMP_pressure;BME280_temperature;BME280_humidity;BME280_pressure;Samples;Min_cycle;Max_cycle;Signal;HPM_P1;HPM_P2
2022/12/24 00:01:30;;;;;;;1.23;0.90;;;24.60;48.50;;;-142.21;100.00;57916.31;5073734;28;20286;-75
2022/12/24 00:03:59;;;;;;;2.77;1.30;;;24.60;48.50;;;-142.21;100.00;57916.31;5072719;28;20778;-78
2022/12/24 00:06:26;;;;;;;2.40;0.90;;;24.60;48.50;;;-142.21;100.00;57916.31;5073751;28;20564;-80
2022/12/24 00:08:53;;;;;;;1.17;1.10;;;24.60;48.40;;;-142.21;100.00;57916.31;5070835;28;20264;-79
2022/12/24 00:11:21;;;;;;;1.03;0.97;;;24.60;48.50;;;-142.21;100.00;57916.31;5067910;28;20206;-79
2022/12/24 00:13:48;;;;;;;1.00;0.90;;;24.60;48.50;;;-142.21;100.00;57916.31;5067164;28;20201;-79
2022/12/24 00:16:16;;;;;;;1.13;0.87;;;24.60;48.40;;;-142.21;100.00;57916.31;5072914;28;20275;-79
2022/12/24 00:18:43;;;;;;;1.40;1.03;;;24.70;48.60;;;-142.21;100.00;57916.31;5052380;28;20250;-77
2022/12/24 00:21:12;;;;;;;3.60;1.20;;;24.70;48.50;;;-142.21;100.00;57916.31;5053076;28;20741;-79
2022/12/24 00:23:40;;;;;;;3.13;1.10;;;24.70;49.10;;;-142.21;100.00;57916.31;5053324;28;20207;-79
2022/12/24 00:26:08;;;;;;;1.77;1.13;;;24.70;48.50;;;-142.21;100.00;57916.31;5053179;28;20240;-78
2022/12/24 00:28:35;;;;;;;2.07;0.90;;;24.70;49.10;;;-142.21;100.00;57916.31;5052767;28;20324;-78
2022/12/24 00:31:09;;;;;;;3.10;1.00;;;24.70;48.50;;;-142.21;100.00;57916.31;5052534;28;20296;-78
2022/12/24 00:33:36;;;;;;;4.23;1.20;;;24.70;48.50;;;-142.21;100.00;57916.31;5035529;28;20272;-79
2022/12/24 00:36:04;;;;;;;3.57;1.07;;;24.70;48.40;;;-142.21;100.00;57916.31;5052092;28;20284;-78
2022/12/24 00:38:33;;;;;;;2.63;1.00;;;24.70;48.40;;;-142.21;100.00;57916.31;5052588;28;20203;-79
2022/12/24 00:41:01;;;;;;;1.23;1.00;;;24.70;48.30;;;-142.21;100.00;57916.31;5052257;28;20296;-78
2022/12/24 00:43:28;;;;;;;3.03;1.00;;;24.70;48.30;;;-142.21;100.00;57916.31;5053266;28;20220;-79
2022/12/24 00:45:56;;;;;;;1.20;1.00;;;24.80;48.30;;;-142.21;100.00;57916.31;5034436;28;20236;-79
2022/12/24 00:48:24;;;;;;;2.30;1.10;;;24.80;48.30;;;-142.21;100.00;57916.31;5052641;28;20229;-79
2022/12/24 00:50:51;;;;;;;2.23;1.20;;;24.80;48.30;;;-142.21;100.00;57916.31;5052010;28;20297;-79
2022/12/24 00:53:19;;;;;;;2.43;1.10;;;24.80;48.30;;;-142.21;100.00;57916.31;5052296;28;20288;-79
2022/12/24 00:55:48;;;;;;;1.80;1.10;;;24.80;48.20;;;-142.21;100.00;57916.31;5052128;28;20297;-79
2022/12/24 00:58:15;;;;;;;2.27;1.13;;;24.80;48.20;;;-142.21;100.00;57916.31;5052922;28;20281;-78
2022/12/24 01:00:42;;;;;;;1.10;1.00;;;24.80;48.10;;;-142.21;100.00;57916.31;5052041;28;20300;-79
2022/12/24 01:03:09;;;;;;;2.77;1.10;;;24.80;48.10;;;-142.21;100.00;57916.31;5052732;28;20237;-79
2022/12/24 01:05:35;;;;;;;1.60;0.97;;;24.90;48.20;;;-142.21;100.00;57916.31;5052650;28;20209;-79
2022/12/24 01:08:02;;;;;;;1.53;1.13;;;24.80;48.10;;;-142.21;100.00;57916.31;5051384;28;20217;-79
2022/12/24 01:10:29;;;;;;;1.53;1.03;;;24.80;48.00;;;-142.21;100.00;57916.31;5052663;28;20212;-77
2022/12/24 01:13:01;;;;;;;1.13;1.03;;;24.90;48.10;;;-142.21;100.00;57916.31;5051876;28;20301;-79
2022/12/24 01:15:29;;;;;;;2.50;1.20;;;24.90;48.20;;;-142.21;100.00;57916.31;5052288;28;20196;-78
2022/12/24 01:17:57;;;;;;;1.10;1.00;;;24.90;48.10;;;-142.21;100.00;57916.31;5051718;28;20308;-79
2022/12/24 01:20:25;;;;;;;2.83;1.20;;;24.90;48.10;;;-142.21;100.00;57916.31;5052174;28;20244;-79
2022/12/24 01:22:53;;;;;;;1.33;1.00;;;24.90;48.00;;;-142.21;100.00;57916.31;5051719;28;20208;-78
2022/12/24 01:25:20;;;;;;;1.33;1.23;;;24.90;48.00;;;-142.21;100.00;57916.31;5052168;28;20237;-79
2022/12/24 01:27:47;;;;;;;2.03;0.90;;;24.90;47.90;;;-142.21;100.00;57916.31;5031453;28;20764;-74
2022/12/24 01:30:16;;;;;;;3.00;1.00;;;24.90;47.90;;;-142.21;100.00;57916.31;5032101;28;20281;-75
2022/12/24 01:32:43;;;;;;;1.63;0.90;;;24.90;47.90;;;-142.21;100.00;57916.31;5031958;28;20208;-76
2022/12/24 01:35:11;;;;;;;1.17;0.93;;;24.90;47.90;;;-142.21;100.00;57916.31;5032190;28;20209;-75
2022/12/24 01:37:39;;;;;;;2.23;1.00;;;24.90;47.90;;;-142.21;100.00;57916.31;5041270;28;20351;-79
2022/12/24 01:45:48;;;;;;;3.00;1.10;;;25.00;47.80;;;-142.21;100.00;57916.31;5051932;28;20212;-80
2022/12/24 01:48:34;;;;;;;1.47;1.17;;;24.90;47.90;;;-142.21;100.00;57916.31;5038661;28;20267;-78
2022/12/24 01:51:09;;;;;;;1.50;0.83;;;24.90;48.00;;;-142.21;100.00;57916.31;5055711;28;20228;-79
2022/12/24 01:53:39;;;;;;;1.50;1.00;;;24.90;47.90;;;-142.21;100.00;57916.31;5055926;28;20712;-77
2022/12/24 01:56:08;;;;;;;8.83;1.47;;;25.00;48.00;;;-142.21;100.00;57916.31;5055633;28;20236;-78
2022/12/24 01:58:39;;;;;;;2.00;0.90;;;24.90;47.90;;;-142.21;100.00;57916.31;5055756;28;20308;-80
2022/12/24 02:01:09;;;;;;;1.20;1.00;;;24.90;47.90;;;-142.21;100.00;57916.31;5055457;28;20228;-78
2022/12/24 02:03:36;;;;;;;0.83;0.83;;;24.90;47.90;;;-142.21;100.00;57916.31;5055837;28;20288;-76
2022/12/24 02:06:05;;;;;;;0.90;0.80;;;24.90;47.80;;;-142.21;100.00;57916.31;5055290;28;20267;-79
2022/12/24 02:08:39;;;;;;;1.10;1.00;;;25.00;47.90;;;-142.21;100.00;57916.31;5035733;28;20769;-77
2022/12/24 02:11:12;;;;;;;9.47;1.30;;;24.90;47.90;;;-142.21;100.00;57916.31;5035404;28;20182;-78
2022/12/24 02:13:42;;;;;;;0.80;0.60;;;24.90;47.90;;;-142.21;100.00;57916.31;5050775;28;20193;-78
2022/12/24 02:16:25;;;;;;;1.23;0.80;;;24.90;47.90;;;-142.21;100.00;57916.31;5055439;28;20236;-78
2022/12/24 02:19:15;;;;;;;1.87;1.00;;;24.90;47.90;;;-142.21;100.00;57916.31;5055302;28;20204;-79
2022/12/24 02:22:02;;;;;;;1.00;0.80;;;24.90;47.90;;;-142.21;100.00;57916.31;5055574;28;20185;-76
2022/12/24 02:25:05;;;;;;;1.60;1.17;;;24.90;47.90;;;-142.21;100.00;57916.31;5055612;28;20251;-78
2022/12/24 02:27:50;;;;;;;1.63;1.33;;;24.90;47.90;;;-142.21;100.00;57916.31;5054848;28;20306;-77
2022/12/24 02:30:20;;;;;;;2.60;1.10;;;24.90;47.90;;;-142.21;100.00;57916.31;5055967;28;20216;-76
2022/12/24 02:33:14;;;;;;;1.60;0.70;;;24.90;47.90;;;-142.21;100.00;57916.31;5054704;28;20262;-75
2022/12/24 02:35:51;;;;;;;2.07;0.93;;;24.90;47.90;;;-142.21;100.00;57916.31;5055518;28;20185;-77
2022/12/24 02:38:27;;;;;;;1.33;1.07;;;24.90;47.90;;;-142.21;100.00;57916.31;5055274;28;20240;-79
2022/12/24 02:41:02;;;;;;;2.17;1.00;;;24.90;47.90;;;-142.21;100.00;57916.31;5054955;28;20186;-76
2022/12/24 02:43:35;;;;;;;1.30;1.03;;;24.90;47.80;;;-142.21;100.00;57916.31;5054836;28;20224;-78
2022/12/24 02:46:11;;;;;;;1.37;0.80;;;24.90;47.90;;;-142.21;100.00;57916.31;5054533;28;20194;-78
2022/12/24 02:48:44;;;;;;;2.07;1.10;;;24.90;47.90;;;-142.21;100.00;57916.31;5055067;28;20688;-76
2022/12/24 02:51:12;;;;;;;1.00;0.90;;;24.90;47.90;;;-142.21;100.00;57916.31;5055146;28;20251;-75
2022/12/24 02:53:40;;;;;;;0.83;0.80;;;24.90;47.70;;;-142.21;100.00;57916.31;5054974;28;20198;-78
2022/12/24 02:56:31;;;;;;;0.97;0.90;;;24.90;47.80;;;-142.21;100.00;57916.31;5054368;28;20225;-76
2022/12/24 02:59:28;;;;;;;1.03;0.80;;;24.90;47.80;;;-142.21;100.00;57916.31;5054499;28;20692;-77
2022/12/24 03:02:18;;;;;;;1.27;0.90;;;24.90;47.90;;;-142.21;100.00;57916.31;5054331;28;20340;-77
2022/12/24 03:04:57;;;;;;;0.70;0.70;;;24.90;47.90;;;-142.21;100.00;57916.31;5054862;28;20210;-79
2022/12/24 03:07:34;;;;;;;3.17;0.97;;;24.90;47.80;;;-142.21;100.00;57916.31;5038469;28;20235;-80
2022/12/24 03:10:18;;;;;;;2.37;1.00;;;24.90;47.80;;;-142.21;100.00;57916.31;5054130;28;20233;-77
2022/12/24 03:12:50;;;;;;;1.17;1.00;;;24.90;47.80;;;-142.21;100.00;57916.31;5054220;28;20281;-77
2022/12/24 03:15:24;;;;;;;1.10;0.90;;;24.90;47.80;;;-142.21;100.00;57916.31;5054744;28;20186;-80
2022/12/24 03:17:58;;;;;;;1.30;1.17;;;24.90;47.80;;;-142.21;100.00;57916.31;5054053;28;20226;-76
2022/12/24 03:20:32;;;;;;;0.93;0.87;;;24.90;47.80;;;-142.21;100.00;57916.31;5054771;28;20224;-77
2022/12/24 03:22:59;;;;;;;1.73;1.13;;;24.90;47.90;;;-142.21;100.00;57916.31;5054118;28;20196;-78
2022/12/24 03:25:28;;;;;;;2.13;1.10;;;24.90;47.80;;;-142.21;100.00;57916.31;5054252;28;20198;-77
2022/12/24 03:27:57;;;;;;;1.47;1.10;;;24.90;47.80;;;-142.21;100.00;57916.31;5053311;28;20267;-78
2022/12/24 03:30:27;;;;;;;1.77;1.00;;;24.90;47.80;;;-142.21;100.00;57916.31;5054326;28;20233;-76
2022/12/24 03:32:56;;;;;;;2.63;0.90;;;24.90;47.90;;;-142.21;100.00;57916.31;5053447;28;20232;-75
2022/12/24 03:35:24;;;;;;;1.07;0.97;;;24.80;47.70;;;-142.21;100.00;57916.31;5054237;28;20209;-76
2022/12/24 03:37:52;;;;;;;1.67;1.10;;;24.90;47.80;;;-142.21;100.00;57916.31;5053840;28;20213;-78
2022/12/24 03:40:19;;;;;;;0.87;0.80;;;24.90;47.80;;;-142.21;100.00;57916.31;5035991;28;20510;-78
2022/12/24 03:42:46;;;;;;;1.63;1.03;;;24.80;47.70;;;-142.21;100.00;57916.31;5054258;28;20726;-79
2022/12/24 03:45:13;;;;;;;2.20;1.20;;;24.90;47.70;;;-142.21;100.00;57916.31;5053691;28;20264;-80
2022/12/24 03:47:41;;;;;;;1.07;0.80;;;24.90;47.80;;;-142.21;100.00;57916.31;5053870;28;20198;-77
2022/12/24 03:50:10;;;;;;;1.53;1.10;;;24.80;47.80;;;-142.21;100.00;57916.31;5053336;28;20264;-78
2022/12/24 03:52:37;;;;;;;1.60;1.13;;;24.80;47.70;;;-142.21;100.00;57916.31;5053817;28;20249;-77
2022/12/24 03:55:05;;;;;;;1.37;0.83;;;24.80;47.70;;;-142.21;100.00;57916.31;5052938;28;20300;-78
2022/12/24 03:57:32;;;;;;;2.80;1.30;;;24.80;47.70;;;-142.21;100.00;57916.31;5033710;28;20214;-79
2022/12/24 04:00:00;;;;;;;0.90;0.90;;;24.80;47.70;;;-142.21;100.00;57916.31;5033271;28;20260;-76
2022/12/24 04:02:27;;;;;;;2.47;1.47;;;24.80;47.70;;;-142.21;100.00;57916.31;5033515;28;20255;-78
2022/12/24 04:04:54;;;;;;;2.20;1.00;;;24.80;47.70;;;-142.21;100.00;57916.31;5033078;28;20214;-79
2022/12/24 04:07:23;;;;;;;1.10;0.80;;;24.80;47.70;;;-142.21;100.00;57916.31;5033705;28;20749;-78
2022/12/24 04:09:50;;;;;;;0.87;0.83;;;24.80;47.70;;;-142.21;100.00;57916.31;5032458;28;20313;-76
2022/12/24 04:12:20;;;;;;;0.97;0.90;;;24.80;47.80;;;-142.21;100.00;57916.31;5033923;28;20252;-76
2022/12/24 04:14:49;;;;;;;1.03;0.73;;;24.70;47.70;;;-142.21;100.00;57916.31;5033455;28;20237;-78
2022/12/24 04:17:16;;;;;;;2.80;1.17;;;24.80;47.70;;;-142.21;100.00;57916.31;5033528;28;20226;-78
2022/12/24 04:19:44;;;;;;;1.90;1.10;;;24.70;47.70;;;-142.21;100.00;57916.31;5033404;28;20543;-75
2022/12/24 04:22:11;;;;;;;1.83;1.10;;;24.80;47.70;;;-142.21;100.00;57916.31;5032350;28;20213;-78
2022/12/24 04:24:39;;;;;;;1.60;1.07;;;24.80;47.80;;;-142.21;100.00;57916.31;5034182;28;20340;-80
2022/12/24 04:27:07;;;;;;;1.57;0.90;;;24.70;47.60;;;-142.21;100.00;57916.31;5052262;28;20650;-80
2022/12/24 04:29:34;;;;;;;1.63;0.77;;;24.80;47.80;;;-142.21;100.00;57916.31;5053253;28;20321;-80
2022/12/24 04:32:01;;;;;;;0.80;0.80;;;24.70;47.70;;;-142.21;100.00;57916.31;5052384;28;20202;-80
2022/12/24 04:34:29;;;;;;;1.27;0.90;;;24.70;47.70;;;-142.21;100.00;57916.31;5053065;28;20668;-80
2022/12/24 04:36:56;;;;;;;1.70;0.80;;;24.70;47.60;;;-142.21;100.00;57916.31;5052201;28;20201;-79
2022/12/24 04:39:23;;;;;;;1.67;1.03;;;24.70;47.60;;;-142.21;100.00;57916.31;5052746;28;20237;-79
2022/12/24 04:41:52;;;;;;;1.27;1.07;;;24.70;47.70;;;-142.21;100.00;57916.31;5052929;28;20237;-78
2022/12/24 04:44:19;;;;;;;2.00;1.00;;;24.70;47.60;;;-142.21;100.00;57916.31;5053382;28;20213;-80
2022/12/24 04:46:46;;;;;;;1.50;0.90;;;24.70;47.70;;;-142.21;100.00;57916.31;5053055;28;20236;-80
2022/12/24 04:49:13;;;;;;;2.73;1.40;;;24.70;47.60;;;-142.21;100.00;57916.31;5052463;28;20261;-80
2022/12/24 04:51:40;;;;;;;1.37;1.10;;;24.70;47.60;;;-142.21;100.00;57916.31;5052401;28;20213;-77
2022/12/24 04:54:08;;;;;;;1.53;1.10;;;24.70;47.70;;;-142.21;100.00;57916.31;5052062;28;20202;-79
2022/12/24 04:56:35;;;;;;;1.27;0.90;;;24.70;47.70;;;-142.21;100.00;57916.31;5052499;28;20252;-80
2022/12/24 04:59:04;;;;;;;1.33;0.90;;;24.70;47.70;;;-142.21;100.00;57916.31;5052432;28;20248;-80
2022/12/24 05:01:33;;;;;;;1.67;1.20;;;24.70;47.70;;;-142.21;100.00;57916.31;5052378;28;20201;-80
2022/12/24 05:04:00;;;;;;;1.37;0.80;;;24.70;47.70;;;-142.21;100.00;57916.31;5052279;28;20214;-78
2022/12/24 05:06:31;;;;;;;1.90;1.10;;;24.70;47.70;;;-142.21;100.00;57916.31;5052423;28;20215;-78
2022/12/24 05:09:00;;;;;;;1.87;1.00;;;24.70;47.70;;;-142.21;100.00;57916.31;5051750;28;20661;-80
2022/12/24 05:11:27;;;;;;;2.47;1.10;;;24.70;47.70;;;-142.21;100.00;57916.31;5052280;28;20553;-80
2022/12/24 05:13:55;;;;;;;1.50;0.77;;;24.70;47.70;;;-142.21;100.00;57916.31;5051749;28;20252;-80
2022/12/24 05:16:24;;;;;;;1.30;1.03;;;24.70;47.60;;;-142.21;100.00;57916.31;5052596;28;20241;-80
2022/12/24 05:18:52;;;;;;;1.17;0.93;;;24.70;47.70;;;-142.21;100.00;57916.31;5052221;28;20210;-80
2022/12/24 05:21:23;;;;;;;1.77;0.80;;;24.70;47.70;;;-142.21;100.00;57916.31;5051037;28;20634;-80
2022/12/24 05:26:55;;;;;;;1.93;1.03;;;24.70;47.70;;;-142.21;100.00;57916.31;4990718;28;20614;-78
2022/12/24 05:29:23;;;;;;;2.27;1.10;;;24.60;47.60;;;-142.21;100.00;57916.31;4990582;28;20245;-78
2022/12/24 05:31:51;;;;;;;1.23;0.93;;;24.70;47.70;;;-142.21;100.00;57916.31;5010516;28;20205;-80
2022/12/24 05:34:19;;;;;;;1.50;1.00;;;24.70;47.60;;;-142.21;100.00;57916.31;5031906;28;20255;-78
2022/12/24 05:36:46;;;;;;;1.20;0.87;;;24.70;47.60;;;-142.21;100.00;57916.31;5032328;28;20213;-79
2022/12/24 05:39:15;;;;;;;1.93;1.10;;;24.60;47.50;;;-142.21;100.00;57916.31;5031508;28;20293;-80
2022/12/24 05:41:43;;;;;;;1.20;1.10;;;24.60;47.60;;;-142.21;100.00;57916.31;5032151;28;20554;-80
2022/12/24 05:44:10;;;;;;;1.13;0.90;;;24.70;47.70;;;-142.21;100.00;57916.31;5031438;28;20245;-80
2022/12/24 05:46:38;;;;;;;1.67;1.20;;;24.70;47.60;;;-142.21;100.00;57916.31;5032082;28;20306;-79
2022/12/24 05:49:06;;;;;;;1.10;1.00;;;24.70;47.60;;;-142.21;100.00;57916.31;5031568;28;20264;-80
2022/12/24 05:51:33;;;;;;;1.60;0.97;;;24.70;47.60;;;-142.21;100.00;57916.31;5032114;28;20237;-78
2022/12/24 05:54:00;;;;;;;1.37;1.20;;;24.70;47.50;;;-142.21;100.00;57916.31;5031028;28;20198;-80
2022/12/24 05:56:28;;;;;;;1.53;1.00;;;24.70;47.50;;;-142.21;100.00;57916.31;5032192;28;20288;-79
2022/12/24 05:58:56;;;;;;;1.13;1.03;;;24.70;47.50;;;-142.21;100.00;57916.31;5031828;28;20294;-76
2022/12/24 06:01:25;;;;;;;1.73;1.37;;;24.70;47.50;;;-142.21;100.00;57916.31;5031990;28;20253;-80
2022/12/24 06:03:53;;;;;;;0.93;0.80;;;24.70;47.60;;;-142.21;100.00;57916.31;5031716;28;20242;-79
2022/12/24 06:06:24;;;;;;;1.53;0.90;;;24.70;47.60;;;-142.21;100.00;57916.31;5031338;28;20356;-79
2022/12/24 06:08:54;;;;;;;1.37;1.17;;;24.70;47.50;;;-142.21;100.00;57916.31;5032185;28;20590;-80
2022/12/24 06:11:25;;;;;;;1.43;0.93;;;24.70;47.60;;;-142.21;100.00;57916.31;5031675;28;20253;-80
2022/12/24 06:13:53;;;;;;;1.93;1.00;;;24.70;47.50;;;-142.21;100.00;57916.31;5031768;28;20194;-79
2022/12/24 06:16:22;;;;;;;0.70;0.70;;;24.70;47.50;;;-142.21;100.00;57916.31;5032156;28;20237;-79
2022/12/24 06:18:50;;;;;;;1.37;1.07;;;24.70;47.50;;;-142.21;100.00;57916.31;5031657;28;20225;-79
2022/12/24 06:21:17;;;;;;;2.20;1.23;;;24.70;47.40;;;-142.21;100.00;57916.31;5031285;28;20218;-78
2022/12/24 06:23:47;;;;;;;1.57;1.13;;;24.80;47.50;;;-142.21;100.00;57916.31;5031537;28;20610;-80
2022/12/24 06:26:20;;;;;;;1.20;1.10;;;24.80;47.50;;;-142.21;100.00;57916.31;5031225;28;20213;-79
2022/12/24 06:28:50;;;;;;;1.57;1.13;;;24.80;47.50;;;-142.21;100.00;57916.31;5045738;28;20268;-79
2022/12/24 06:31:21;;;;;;;1.10;1.00;;;24.80;47.50;;;-142.21;100.00;57916.31;5050809;28;20222;-79
2022/12/24 06:33:48;;;;;;;1.57;1.00;;;24.80;47.50;;;-142.21;100.00;57916.31;5054900;28;20281;-80
2022/12/24 06:36:19;;;;;;;1.73;1.10;;;24.80;47.40;;;-142.21;100.00;57916.31;5054819;28;20248;-80
2022/12/24 06:38:48;;;;;;;1.73;1.17;;;24.80;47.40;;;-142.21;100.00;57916.31;5055056;28;20285;-80
2022/12/24 06:41:17;;;;;;;2.27;1.00;;;24.80;47.30;;;-142.21;100.00;57916.31;5054652;28;20206;-80
2022/12/24 06:43:49;;;;;;;0.90;0.90;;;24.90;47.40;;;-142.21;100.00;57916.31;5055282;28;20220;-80
2022/12/24 06:46:17;;;;;;;2.10;1.10;;;24.80;47.20;;;-142.21;100.00;57916.31;5054623;28;20182;-79
2022/12/24 06:48:45;;;;;;;2.90;1.50;;;24.90;47.40;;;-142.21;100.00;57916.31;5055359;28;20288;-80
2022/12/24 06:51:14;;;;;;;1.90;1.37;;;24.90;47.30;;;-142.21;100.00;57916.31;5054768;28;20412;-79
2022/12/24 06:53:41;;;;;;;1.03;0.90;;;24.90;47.30;;;-142.21;100.00;57916.31;5054972;28;20288;-80
2022/12/24 06:56:13;;;;;;;1.37;1.07;;;24.90;47.20;;;-142.21;100.00;57916.31;5054376;28;20209;-80
2022/12/24 06:58:42;;;;;;;2.13;0.93;;;24.90;47.20;;;-142.21;100.00;57916.31;5055471;28;20496;-80
2022/12/24 07:01:12;;;;;;;1.27;1.07;;;24.90;47.20;;;-142.21;100.00;57916.31;5054382;28;20293;-79
2022/12/24 07:03:40;;;;;;;1.77;1.20;;;24.90;47.20;;;-142.21;100.00;57916.31;5054559;28;20293;-78
2022/12/24 07:06:11;;;;;;;1.70;0.90;;;24.90;47.20;;;-142.21;100.00;57916.31;5054315;28;20536;-79
2022/12/24 07:08:38;;;;;;;1.37;0.80;;;24.90;47.20;;;-142.21;100.00;57916.31;5054289;28;20229;-78
2022/12/24 07:11:05;;;;;;;1.70;0.90;;;24.90;47.00;;;-142.21;100.00;57916.31;5053973;28;20308;-79
2022/12/24 07:13:34;;;;;;;1.37;0.97;;;24.90;47.00;;;-142.21;100.00;57916.31;5054689;28;20233;-80
2022/12/24 07:16:04;;;;;;;1.30;1.17;;;24.90;47.60;;;-142.21;100.00;57916.31;5053991;28;20241;-79
2022/12/24 07:18:31;;;;;;;1.10;0.90;;;25.00;47.10;;;-142.21;100.00;57916.31;5054558;28;20253;-80
2022/12/24 07:20:59;;;;;;;1.17;1.03;;;25.00;47.10;;;-142.21;100.00;57916.31;5054609;28;20244;-80
2022/12/24 07:23:26;;;;;;;1.73;1.03;;;25.00;47.10;;;-142.21;100.00;57916.31;5053992;28;20233;-80
2022/12/24 07:25:53;;;;;;;1.10;0.90;;;25.00;47.00;;;-142.21;100.00;57916.31;5054384;28;20202;-79
2022/12/24 07:28:21;;;;;;;1.73;1.10;;;25.00;47.00;;;-142.21;100.00;57916.31;5053748;28;20784;-78
2022/12/24 07:30:50;;;;;;;1.63;1.33;;;25.00;47.00;;;-142.21;100.00;57916.31;5053947;28;20225;-79
2022/12/24 07:33:17;;;;;;;2.07;1.00;;;25.00;47.60;;;-142.21;100.00;57916.31;5053665;28;20233;-79
2022/12/24 07:35:44;;;;;;;1.03;0.83;;;25.00;47.00;;;-142.21;100.00;57916.31;5054078;28;20236;-79
2022/12/24 07:38:11;;;;;;;1.10;0.90;;;25.00;47.00;;;-142.21;100.00;57916.31;5053378;28;20654;-79
2022/12/24 07:40:38;;;;;;;1.63;1.10;;;25.00;47.00;;;-142.21;100.00;57916.31;5054073;28;20205;-78
2022/12/24 07:43:06;;;;;;;1.00;0.87;;;25.00;46.90;;;-142.21;100.00;57916.31;5053378;28;20252;-78
2022/12/24 07:45:33;;;;;;;1.43;1.00;;;25.00;47.00;;;-142.21;100.00;57916.31;5052965;28;20245;-79
2022/12/24 07:48:02;;;;;;;2.30;1.30;;;25.00;47.00;;;-142.21;100.00;57916.31;5053487;28;20271;-77
2022/12/24 07:50:29;;;;;;;1.70;1.00;;;25.00;46.90;;;-142.21;100.00;57916.31;5053786;28;20229;-79
2022/12/24 07:52:56;;;;;;;1.63;1.30;;;25.00;47.00;;;-142.21;100.00;57916.31;5054047;28;20217;-79
2022/12/24 07:55:23;;;;;;;1.47;1.10;;;25.00;47.00;;;-142.21;100.00;57916.31;5053404;28;20237;-79
2022/12/24 07:57:50;;;;;;;1.17;0.90;;;25.00;47.00;;;-142.21;100.00;57916.31;5054053;28;20241;-78
2022/12/24 08:00:19;;;;;;;1.73;1.23;;;25.00;47.00;;;-142.21;100.00;57916.31;5053229;28;20717;-79
2022/12/24 08:02:46;;;;;;;1.10;1.00;;;25.00;47.70;;;-142.21;100.00;57916.31;5053590;28;20233;-79
2022/12/24 08:05:15;;;;;;;1.20;0.97;;;25.00;47.00;;;-142.21;100.00;57916.31;5052911;28;20206;-78
2022/12/24 08:07:42;;;;;;;1.53;0.80;;;25.00;47.00;;;-142.21;100.00;57916.31;5053344;28;20205;-78
2022/12/24 08:10:10;;;;;;;2.07;1.20;;;25.00;47.00;;;-142.21;100.00;57916.31;5052743;28;20697;-79
2022/12/24 08:12:37;;;;;;;1.90;1.17;;;25.00;47.00;;;-142.21;100.00;57916.31;5053536;28;20196;-79
2022/12/24 08:15:06;;;;;;;1.83;1.13;;;25.00;47.00;;;-142.21;100.00;57916.31;5052866;28;20236;-79
2022/12/24 08:17:33;;;;;;;1.17;1.00;;;25.00;47.10;;;-142.21;100.00;57916.31;5053404;28;20260;-79
2022/12/24 08:20:00;;;;;;;1.40;1.10;;;25.00;47.00;;;-142.21;100.00;57916.31;5053624;28;20212;-79
2022/12/24 08:22:29;;;;;;;1.20;1.00;;;25.00;47.00;;;-142.21;100.00;57916.31;5053243;28;20201;-78
2022/12/24 08:24:56;;;;;;;2.07;1.30;;;25.00;47.00;;;-142.21;100.00;57916.31;5040856;28;20198;-80
2022/12/24 08:27:23;;;;;;;2.40;1.10;;;24.90;47.00;;;-142.21;100.00;57916.31;5052658;28;20867;-79
2022/12/24 08:29:51;;;;;;;1.67;1.07;;;24.90;47.00;;;-142.21;100.00;57916.31;5052975;28;20661;-79
2022/12/24 08:32:18;;;;;;;1.43;1.07;;;24.90;47.00;;;-142.21;100.00;57916.31;5052859;28;20673;-79
2022/12/24 08:34:45;;;;;;;2.50;1.20;;;25.00;47.10;;;-142.21;100.00;57916.31;5052941;28;20201;-79
2022/12/24 08:37:13;;;;;;;1.30;0.87;;;25.00;47.00;;;-142.21;100.00;57916.31;5052103;28;20233;-79
2022/12/24 08:39:44;;;;;;;0.87;0.83;;;25.00;47.00;;;-142.21;100.00;57916.31;5053164;28;20280;-79
2022/12/24 08:42:11;;;;;;;1.10;0.80;;;25.00;47.00;;;-142.21;100.00;57916.31;5052741;28;20190;-78
2022/12/24 08:44:38;;;;;;;2.43;1.20;;;24.90;46.90;;;-142.21;100.00;57916.31;5052423;28;20257;-79
2022/12/24 08:47:05;;;;;;;1.73;0.90;;;24.90;46.90;;;-142.21;100.00;57916.31;5052262;28;20242;-80
2022/12/24 08:49:33;;;;;;;1.57;1.20;;;24.90;46.90;;;-142.21;100.00;57916.31;5052852;28;20198;-79
2022/12/24 08:52:00;;;;;;;0.87;0.60;;;25.00;47.00;;;-142.21;100.00;57916.31;5052630;28;20221;-79
2022/12/24 08:54:30;;;;;;;1.17;0.93;;;24.90;46.80;;;-142.21;100.00;57916.31;5052055;28;20212;-79
2022/12/24 08:56:58;;;;;;;2.47;1.10;;;24.90;46.90;;;-142.21;100.00;57916.31;5052920;28;20233;-79
2022/12/24 08:59:26;;;;;;;1.70;1.10;;;24.90;46.90;;;-142.21;100.00;57916.31;5052228;28;20201;-79
2022/12/24 09:01:53;;;;;;;1.60;1.10;;;25.00;47.00;;;-142.21;100.00;57916.31;5052556;28;20669;-78
2022/12/24 09:04:20;;;;;;;2.50;1.47;;;24.90;46.90;;;-142.21;100.00;57916.31;5052322;28;20678;-79
2022/12/24 09:06:47;;;;;;;1.63;1.20;;;24.90;46.90;;;-142.21;100.00;57916.31;5052613;28;20278;-79
2022/12/24 09:09:15;;;;;;;2.83;1.10;;;24.90;46.90;;;-142.21;100.00;57916.31;5050256;28;20290;-77
2022/12/24 09:11:44;;;;;;;1.47;1.00;;;24.90;46.90;;;-142.21;100.00;57916.31;5013832;28;20335;-78
2022/12/24 09:14:12;;;;;;;1.97;0.93;;;24.90;47.00;;;-142.21;100.00;57916.31;5047126;28;20274;-78
2022/12/24 09:16:39;;;;;;;1.97;1.23;;;25.00;46.90;;;-142.21;100.00;57916.31;5052489;28;20252;-77
2022/12/24 09:19:07;;;;;;;2.03;1.33;;;24.90;46.90;;;-142.21;100.00;57916.31;5051179;28;20297;-77
2022/12/24 09:21:34;;;;;;;1.70;0.93;;;24.90;47.60;;;-142.21;100.00;57916.31;5034140;28;20286;-80
2022/12/24 09:24:04;;;;;;;2.10;1.30;;;24.90;47.00;;;-142.21;100.00;57916.31;5049802;28;20217;-79
2022/12/24 09:26:31;;;;;;;1.53;1.00;;;24.90;47.10;;;-142.21;100.00;57916.31;5051956;28;20221;-78
2022/12/24 09:29:00;;;;;;;1.60;1.10;;;24.90;47.00;;;-142.21;100.00;57916.31;5051554;28;20221;-79
2022/12/24 09:31:29;;;;;;;2.27;1.00;;;24.90;47.60;;;-142.21;100.00;57916.31;5051505;28;20221;-75
2022/12/24 09:33:56;;;;;;;2.23;1.23;;;24.90;47.00;;;-142.21;100.00;57916.31;5052035;28;20201;-76
2022/12/24 09:36:23;;;;;;;1.50;1.10;;;24.90;47.00;;;-142.21;100.00;57916.31;5051815;28;20257;-79
2022/12/24 09:38:51;;;;;;;1.77;1.20;;;24.90;47.00;;;-142.21;100.00;57916.31;5052221;28;20625;-76
2022/12/24 09:41:36;;;;;;;2.20;1.50;;;24.90;47.00;;;-142.21;100.00;57916.31;5051588;28;20619;-75
2022/12/24 09:44:18;;;;;;;2.80;1.37;;;24.90;47.20;;;-142.21;100.00;57916.31;5051903;28;20295;-79
2022/12/24 09:46:50;;;;;;;3.10;1.10;;;24.90;47.10;;;-142.21;100.00;57916.31;5052096;28;20209;-79
2022/12/24 09:49:24;;;;;;;4.97;1.37;;;24.90;47.10;;;-142.21;100.00;57916.31;5051733;28;20255;-79
2022/12/24 09:52:00;;;;;;;1.97;1.20;;;24.90;47.10;;;-142.21;100.00;57916.31;5052482;28;20249;-78
2022/12/24 09:54:34;;;;;;;6.17;1.73;;;24.90;47.20;;;-142.21;100.00;57916.31;5051194;28;20237;-79
2022/12/24 09:57:08;;;;;;;3.17;1.47;;;24.80;47.20;;;-142.21;100.00;57916.31;5051670;28;20208;-79
2022/12/24 09:59:44;;;;;;;2.60;1.20;;;24.80;47.30;;;-142.21;100.00;57916.31;5052400;28;20198;-79
2022/12/24 10:02:17;;;;;;;5.13;2.00;;;24.80;47.40;;;-142.21;100.00;57916.31;5051221;28;20703;-79
2022/12/24 10:04:46;;;;;;;3.80;1.50;;;24.80;47.40;;;-142.21;100.00;57916.31;5052311;28;20186;-79
2022/12/24 10:07:36;;;;;;;3.87;1.73;;;24.80;47.50;;;-142.21;100.00;57916.31;5052529;28;20235;-77
2022/12/24 10:10:18;;;;;;;5.20;1.57;;;24.80;47.60;;;-142.21;100.00;57916.31;5055779;28;20202;-79
2022/12/24 10:12:56;;;;;;;2.97;1.63;;;24.70;47.60;;;-142.21;100.00;57916.31;5056059;28;20218;-79
2022/12/24 10:15:30;;;;;;;8.67;2.17;;;24.70;47.70;;;-142.21;100.00;57916.31;5023042;28;20259;-79
2022/12/24 10:18:20;;;;;;;6.10;2.73;;;24.70;47.80;;;-142.21;100.00;57916.31;5056047;28;20196;-78
2022/12/24 10:20:58;;;;;;;6.00;2.13;;;24.70;48.00;;;-142.21;100.00;57916.31;5053968;28;20206;-78